createdAt,value
2023-04-03T00:00:22.707Z,943.21
2023-04-03T00:00:49.865Z,943.21
2023-04-03T00:01:21.055Z,942.94
2023-04-03T00:01:52.068Z,942.94
2023-04-03T00:02:22.759Z,943.11
2023-04-03T00:02:53.486Z,943.11
2023-04-03T00:03:24.791Z,943.41
2023-04-03T00:03:55.368Z,943.41
2023-04-03T00:04:26.545Z,943.04
2023-04-03T00:04:57.901Z,943.04
2023-04-03T00:05:29.739Z,943.11
2023-04-03T00:05:59.999Z,943.11
2023-04-03T00:06:31.113Z,943.04
2023-04-03T00:07:01.929Z,943.04
2023-04-03T00:07:32.673Z,943.11
2023-04-03T00:08:03.786Z,943.11
2023-04-03T00:08:34.541Z,943.11
2023-04-03T00:09:05.732Z,943.11
2023-04-03T00:09:36.394Z,943.04
2023-04-03T00:10:07.569Z,943.04
2023-04-03T00:10:39.601Z,943.11
2023-04-03T00:11:10.739Z,943.31
2023-04-03T00:11:40.843Z,943.31
2023-04-03T00:12:11.614Z,943.21
2023-04-03T00:12:43.827Z,943.21
2023-04-03T00:13:13.506Z,943.04
2023-04-03T00:13:44.570Z,943.04
2023-04-03T00:14:15.394Z,942.94
2023-04-03T00:14:46.624Z,942.94
2023-04-03T00:15:20.585Z,943.21
2023-04-03T00:15:49.727Z,943.21
2023-04-03T00:16:20.067Z,942.94
2023-04-03T00:16:50.928Z,942.94
2023-04-03T00:17:21.471Z,943.04
2023-04-03T00:17:52.547Z,943.04
2023-04-03T00:18:23.849Z,943.04
2023-04-03T00:18:54.369Z,943.04
2023-04-03T00:19:25.269Z,943.04
2023-04-03T00:19:56.574Z,943.04
2023-04-03T00:20:27.605Z,943.41
2023-04-03T00:20:59.651Z,943.41
2023-04-03T00:21:29.497Z,943.04
2023-04-03T00:22:00.744Z,943.04
2023-04-03T00:22:31.507Z,943.21
2023-04-03T00:23:02.871Z,943.21
2023-04-03T00:23:33.746Z,943.11
2023-04-03T00:24:05.012Z,943.11
2023-04-03T00:24:36.297Z,943.11
2023-04-03T00:25:06.670Z,943.11
2023-04-03T00:25:37.547Z,943.04
2023-04-03T00:26:10.000Z,942.84
2023-04-03T00:26:39.845Z,942.84
2023-04-03T00:27:10.458Z,943.11
2023-04-03T00:27:41.590Z,943.11
2023-04-03T00:28:12.840Z,942.94
2023-04-03T00:28:44.465Z,942.94
2023-04-03T00:29:16.217Z,943.21
2023-04-03T00:29:46.215Z,943.21
2023-04-03T00:30:20.797Z,943.31
2023-04-03T00:30:48.418Z,943.31
2023-04-03T00:31:19.688Z,943.04
2023-04-03T00:31:49.406Z,943.04
2023-04-03T00:32:20.676Z,943.21
2023-04-03T00:32:51.664Z,943.21
2023-04-03T00:33:22.456Z,943.31
2023-04-03T00:33:53.456Z,943.31
2023-04-03T00:34:24.585Z,942.73
2023-04-03T00:34:55.657Z,942.73
2023-04-03T00:35:26.526Z,943.11
2023-04-03T00:35:57.631Z,943.11
2023-04-03T00:36:30.314Z,943.31
2023-04-03T00:36:59.742Z,943.31
2023-04-03T00:37:30.426Z,943.11
2023-04-03T00:38:01.693Z,943.11
2023-04-03T00:38:32.533Z,943.21
2023-04-03T00:39:03.616Z,943.21
2023-04-03T00:39:34.409Z,943.31
2023-04-03T00:40:05.381Z,943.31
2023-04-03T00:40:39.338Z,943.31
2023-04-03T00:41:07.756Z,943.31
2023-04-03T00:41:39.644Z,943.31
2023-04-03T00:42:10.691Z,943.21
2023-04-03T00:42:40.998Z,943.21
2023-04-03T00:43:11.637Z,943.31
2023-04-03T00:43:42.849Z,943.31
2023-04-03T00:44:14.795Z,943.21
2023-04-03T00:44:44.979Z,943.21
2023-04-03T00:45:18.840Z,943.21
2023-04-03T00:45:46.971Z,943.21
2023-04-03T00:46:18.099Z,943.11
2023-04-03T00:46:49.915Z,943.11
2023-04-03T00:47:19.806Z,943.11
2023-04-03T00:47:51.075Z,943.11
2023-04-03T00:48:22.055Z,943.11
2023-04-03T00:48:52.620Z,943.11
2023-04-03T00:49:23.926Z,943.21
2023-04-03T00:49:54.828Z,943.21
2023-04-03T00:50:25.451Z,943.21
2023-04-03T00:50:56.943Z,943.21
2023-04-03T00:51:27.978Z,943.21
2023-04-03T00:51:59.990Z,943.21
2023-04-03T00:52:29.568Z,943.21
2023-04-03T00:53:00.924Z,943.21
2023-04-03T00:53:32.246Z,943.21
2023-04-03T00:54:03.035Z,943.21
2023-04-03T00:54:34.265Z,943.11
2023-04-03T00:55:04.472Z,943.11
2023-04-03T00:55:35.887Z,943.21
2023-04-03T00:56:06.935Z,943.21
2023-04-03T00:56:38.450Z,943.21
2023-04-03T00:57:09.886Z,943.31
2023-04-03T00:57:39.481Z,943.31
2023-04-03T00:58:10.606Z,943.31
2023-04-03T00:58:41.862Z,943.31
2023-04-03T00:59:13.005Z,943.31
2023-04-03T00:59:44.063Z,943.31
2023-04-03T01:00:17.756Z,943.11
2023-04-03T01:00:45.800Z,943.11
2023-04-03T01:01:16.954Z,943.11
2023-04-03T01:01:48.155Z,943.11
2023-04-03T01:02:19.949Z,943.21
2023-04-03T01:02:49.823Z,943.21
2023-04-03T01:03:20.806Z,943.11
2023-04-03T01:03:51.616Z,943.11
2023-04-03T01:04:23.062Z,943.11
2023-04-03T01:04:53.978Z,943.11
2023-04-03T01:05:24.726Z,943.04
2023-04-03T01:05:55.990Z,943.04
2023-04-03T01:06:26.977Z,943.21
2023-04-03T01:06:58.154Z,943.21
2023-04-03T01:07:29.663Z,943.11
2023-04-03T01:07:59.613Z,943.11
2023-04-03T01:08:30.818Z,943.21
2023-04-03T01:09:02.062Z,943.21
2023-04-03T01:09:32.977Z,943.21
2023-04-03T01:10:04.022Z,943.21
2023-04-03T01:10:35.329Z,943.21
2023-04-03T01:11:06.006Z,943.21
2023-04-03T01:11:36.935Z,943.21
2023-04-03T01:12:19.147Z,943.21
2023-04-03T01:12:40.152Z,943.04
2023-04-03T01:13:10.658Z,943.04
2023-04-03T01:13:40.680Z,943.04
2023-04-03T01:14:11.820Z,943.31
2023-04-03T01:14:44.472Z,943.31
2023-04-03T01:15:17.391Z,943.21
2023-04-03T01:15:45.191Z,943.21
2023-04-03T01:16:15.821Z,943.04
2023-04-03T01:16:46.811Z,943.04
2023-04-03T01:17:17.960Z,943.11
2023-04-03T01:17:50.088Z,943.11
2023-04-03T01:18:19.839Z,943.31
2023-04-03T01:18:50.872Z,943.31
2023-04-03T01:19:22.049Z,943.04
2023-04-03T01:19:52.771Z,943.04
2023-04-03T01:20:23.942Z,943.21
2023-04-03T01:20:54.546Z,943.21
2023-04-03T01:21:25.682Z,943.04
2023-04-03T01:21:56.698Z,943.04
2023-04-03T01:22:27.795Z,943.21
2023-04-03T01:23:00.744Z,943.21
2023-04-03T01:23:29.968Z,943.31
2023-04-03T01:24:01.457Z,943.31
2023-04-03T01:24:31.856Z,943.41
2023-04-03T01:25:03.032Z,943.41
2023-04-03T01:25:34.104Z,943.11
2023-04-03T01:26:04.487Z,943.11
2023-04-03T01:26:35.866Z,943.31
2023-04-03T01:27:06.973Z,943.31
2023-04-03T01:27:38.036Z,943.21
2023-04-03T01:28:09.553Z,943.31
2023-04-03T01:28:39.759Z,943.31
2023-04-03T01:29:10.955Z,943.31
2023-04-03T01:29:42.058Z,943.31
2023-04-03T01:30:15.753Z,943.21
2023-04-03T01:30:44.010Z,943.21
2023-04-03T01:31:14.763Z,943.11
2023-04-03T01:31:45.927Z,943.11
2023-04-03T01:32:16.630Z,943.31
2023-04-03T01:32:48.181Z,943.31
2023-04-03T01:33:19.839Z,943.11
2023-04-03T01:33:49.880Z,943.11
2023-04-03T01:34:20.661Z,943.11
2023-04-03T01:34:51.962Z,943.11
2023-04-03T01:35:22.893Z,943.21
2023-04-03T01:35:53.930Z,943.21
2023-04-03T01:36:24.771Z,943.21
2023-04-03T01:36:55.691Z,943.21
2023-04-03T01:37:26.852Z,943.21
2023-04-03T01:37:57.760Z,943.21
2023-04-03T01:38:29.793Z,943.21
2023-04-03T01:39:00.045Z,943.21
2023-04-03T01:39:30.861Z,943.41
2023-04-03T01:40:01.945Z,943.41
2023-04-03T01:40:33.030Z,943.31
2023-04-03T01:41:03.900Z,943.31
2023-04-03T01:41:35.000Z,943.41
2023-04-03T01:42:06.140Z,943.41
2023-04-03T01:42:36.863Z,943.21
2023-04-03T01:43:07.741Z,943.21
2023-04-03T01:43:39.569Z,943.11
2023-04-03T01:44:11.057Z,943.21
2023-04-03T01:44:40.678Z,943.21
2023-04-03T01:45:14.686Z,943.11
2023-04-03T01:45:43.347Z,943.11
2023-04-03T01:46:14.405Z,943.11
2023-04-03T01:46:45.013Z,943.11
2023-04-03T01:47:15.775Z,943.21
2023-04-03T01:47:47.166Z,943.21
2023-04-03T01:48:18.090Z,943.31
2023-04-03T01:48:49.576Z,943.31
2023-04-03T01:49:20.749Z,943.04
2023-04-03T01:49:51.114Z,943.04
2023-04-03T01:50:21.723Z,943.21
2023-04-03T01:50:52.844Z,943.21
2023-04-03T01:51:23.858Z,943.11
2023-04-03T01:51:55.015Z,943.11
2023-04-03T01:52:26.018Z,943.21
2023-04-03T01:52:57.243Z,943.21
2023-04-03T01:53:28.078Z,943.04
2023-04-03T01:53:59.999Z,943.04
2023-04-03T01:54:29.823Z,943.04
2023-04-03T01:55:00.915Z,943.04
2023-04-03T01:55:32.008Z,943.21
2023-04-03T01:56:02.612Z,943.21
2023-04-03T01:56:33.926Z,943.11
2023-04-03T01:57:04.791Z,943.11
2023-04-03T01:57:36.027Z,943.04
2023-04-03T01:58:06.725Z,943.04
2023-04-03T01:58:38.226Z,943.21
2023-04-03T01:59:09.668Z,943.04
2023-04-03T01:59:40.665Z,943.04
2023-04-03T02:00:13.935Z,943.21
2023-04-03T02:00:41.451Z,943.21
2023-04-03T02:01:12.864Z,943.21
2023-04-03T02:01:43.886Z,943.21
2023-04-03T02:02:15.176Z,942.94
2023-04-03T02:02:46.111Z,942.94
2023-04-03T02:03:17.248Z,943.11
2023-04-03T02:03:47.883Z,943.11
2023-04-03T02:04:20.051Z,943.04
2023-04-03T02:04:50.049Z,943.04
2023-04-03T02:05:20.865Z,943.21
2023-04-03T02:05:51.678Z,943.21
2023-04-03T02:06:22.648Z,943.31
2023-04-03T02:06:53.694Z,943.31
2023-04-03T02:07:24.868Z,943.11
2023-04-03T02:07:55.696Z,943.11
2023-04-03T02:08:27.115Z,943.11
2023-04-03T02:08:57.992Z,943.11
2023-04-03T02:09:30.125Z,943.21
2023-04-03T02:09:59.744Z,943.21
2023-04-03T02:10:30.860Z,943.11
2023-04-03T02:11:02.222Z,943.11
2023-04-03T02:11:33.169Z,943.11
2023-04-03T02:12:03.933Z,943.11
2023-04-03T02:12:35.030Z,943.21
2023-04-03T02:13:05.736Z,943.21
2023-04-03T02:13:36.712Z,943.11
2023-04-03T02:14:07.878Z,943.11
2023-04-03T02:14:39.960Z,943.21
2023-04-03T02:15:13.939Z,943.31
2023-04-03T02:15:41.194Z,943.31
2023-04-03T02:16:11.834Z,943.31
2023-04-03T02:16:42.825Z,943.31
2023-04-03T02:17:13.852Z,943.21
2023-04-03T02:17:45.087Z,943.21
2023-04-03T02:18:15.728Z,943.21
2023-04-03T02:18:46.897Z,943.21
2023-04-03T02:19:18.344Z,943.31
2023-04-03T02:19:49.693Z,943.31
2023-04-03T02:20:19.971Z,943.21
2023-04-03T02:20:50.706Z,943.21
2023-04-03T02:21:21.415Z,943.21
2023-04-03T02:21:52.734Z,943.21
2023-04-03T02:22:24.112Z,943.21
2023-04-03T02:22:54.675Z,943.21
2023-04-03T02:23:25.773Z,943.21
2023-04-03T02:23:56.996Z,943.21
2023-04-03T02:24:27.723Z,943.11
2023-04-03T02:24:59.770Z,943.11
2023-04-03T02:25:30.281Z,943.31
2023-04-03T02:26:01.836Z,943.31
2023-04-03T02:26:32.316Z,943.04
2023-04-03T02:27:03.222Z,943.04
2023-04-03T02:27:35.241Z,943.11
2023-04-03T02:28:05.095Z,943.11
2023-04-03T02:28:35.986Z,943.31
2023-04-03T02:29:07.043Z,943.31
2023-04-03T02:29:37.845Z,943.21
2023-04-03T02:30:13.386Z,943.11
2023-04-03T02:30:39.996Z,943.11
2023-04-03T02:31:10.939Z,943.21
2023-04-03T02:31:41.833Z,943.21
2023-04-03T02:32:13.197Z,943.11
2023-04-03T02:32:43.992Z,943.11
2023-04-03T02:33:15.218Z,943.04
2023-04-03T02:33:45.903Z,943.04
2023-04-03T02:34:16.879Z,943.21
2023-04-03T02:34:47.792Z,943.21
2023-04-03T02:35:19.716Z,943.11
2023-04-03T02:35:50.162Z,943.11
2023-04-03T02:36:20.903Z,943.21
2023-04-03T02:36:51.793Z,943.21
2023-04-03T02:37:22.845Z,943.21
2023-04-03T02:37:53.964Z,943.21
2023-04-03T02:38:25.050Z,943.11
2023-04-03T02:38:55.729Z,943.11
2023-04-03T02:39:27.102Z,943.21
2023-04-03T02:39:58.036Z,943.21
2023-04-03T02:40:30.026Z,943.21
2023-04-03T02:41:00.361Z,943.21
2023-04-03T02:41:30.724Z,943.04
2023-04-03T02:42:02.101Z,943.04
2023-04-03T02:42:33.027Z,943.11
2023-04-03T02:43:03.946Z,943.11
2023-04-03T02:43:35.032Z,943.21
2023-04-03T02:44:05.950Z,943.21
2023-04-03T02:44:36.961Z,943.31
2023-04-03T02:45:10.610Z,943.31
2023-04-03T02:45:39.559Z,943.41
2023-04-03T02:46:11.076Z,943.04
2023-04-03T02:46:40.554Z,943.04
2023-04-03T02:47:11.634Z,943.41
2023-04-03T02:47:42.780Z,943.41
2023-04-03T02:48:13.934Z,943.21
2023-04-03T02:48:44.950Z,943.21
2023-04-03T02:49:15.870Z,943.21
2023-04-03T02:49:46.478Z,943.21
2023-04-03T02:50:17.906Z,943.31
2023-04-03T02:50:49.671Z,943.31
2023-04-03T02:51:19.950Z,943.31
2023-04-03T02:51:51.032Z,943.31
2023-04-03T02:52:22.034Z,943.21
2023-04-03T02:52:52.896Z,943.21
2023-04-03T02:53:24.009Z,943.31
2023-04-03T02:53:55.327Z,943.31
2023-04-03T02:54:26.017Z,943.21
2023-04-03T02:54:56.797Z,943.21
2023-04-03T02:55:28.069Z,943.31
2023-04-03T02:55:59.323Z,943.31
2023-04-03T02:56:30.091Z,943.41
2023-04-03T02:57:00.946Z,943.41
2023-04-03T02:57:31.649Z,943.21
2023-04-03T02:58:02.562Z,943.21
2023-04-03T02:58:33.963Z,943.21
2023-04-03T02:59:05.022Z,943.21
2023-04-03T02:59:35.990Z,943.31
2023-04-03T03:00:09.769Z,943.31
2023-04-03T03:00:38.275Z,943.04
2023-04-03T03:01:09.930Z,943.21
2023-04-03T03:01:39.722Z,943.21
2023-04-03T03:02:10.773Z,943.31
2023-04-03T03:02:42.002Z,943.31
2023-04-03T03:03:13.062Z,943.31
2023-04-03T03:03:43.734Z,943.31
2023-04-03T03:04:15.492Z,943.21
2023-04-03T03:04:46.177Z,943.21
2023-04-03T03:05:17.152Z,943.04
2023-04-03T03:05:47.919Z,943.04
2023-04-03T03:06:20.132Z,943.31
2023-04-03T03:06:49.692Z,943.31
2023-04-03T03:07:20.724Z,943.21
2023-04-03T03:07:51.745Z,943.21
2023-04-03T03:08:23.140Z,943.21
2023-04-03T03:08:53.528Z,943.21
2023-04-03T03:09:24.904Z,943.41
2023-04-03T03:09:56.121Z,943.41
2023-04-03T03:10:26.733Z,943.21
2023-04-03T03:10:57.970Z,943.21
2023-04-03T03:11:29.887Z,943.41
2023-04-03T03:11:59.785Z,943.41
2023-04-03T03:12:32.648Z,943.11
2023-04-03T03:13:02.282Z,943.11
2023-04-03T03:13:32.839Z,943.31
2023-04-03T03:14:04.121Z,943.31
2023-04-03T03:14:35.020Z,943.21
2023-04-03T03:15:08.603Z,943.21
2023-04-03T03:15:36.732Z,943.31
2023-04-03T03:16:08.260Z,943.31
2023-04-03T03:16:39.908Z,943.31
2023-04-03T03:17:11.193Z,943.21
2023-04-03T03:17:40.624Z,943.21
2023-04-03T03:18:11.842Z,943.31
2023-04-03T03:18:43.179Z,943.31
2023-04-03T03:19:13.580Z,943.21
2023-04-03T03:19:44.816Z,943.21
2023-04-03T03:20:15.723Z,943.41
2023-04-03T03:20:47.092Z,943.41
2023-04-03T03:21:17.537Z,943.31
2023-04-03T03:21:50.030Z,943.31
2023-04-03T03:22:19.923Z,943.21
2023-04-03T03:22:51.212Z,943.21
2023-04-03T03:23:21.713Z,943.11
2023-04-03T03:23:53.043Z,943.11
2023-04-03T03:24:24.182Z,943.31
2023-04-03T03:24:54.949Z,943.31
2023-04-03T03:25:25.861Z,943.31
2023-04-03T03:25:56.932Z,943.31
2023-04-03T03:26:27.835Z,943.31
2023-04-03T03:27:00.104Z,943.31
2023-04-03T03:27:30.309Z,943.41
2023-04-03T03:28:01.224Z,943.41
2023-04-03T03:28:32.244Z,943.31
2023-04-03T03:29:03.020Z,943.31
2023-04-03T03:29:33.869Z,943.31
2023-04-03T03:30:07.874Z,943.31
2023-04-03T03:30:36.152Z,943.41
2023-04-03T03:31:06.628Z,943.41
2023-04-03T03:31:37.906Z,943.21
2023-04-03T03:32:09.900Z,943.31
2023-04-03T03:35:15.005Z,943.31
2023-04-03T03:35:45.945Z,943.31
2023-04-03T03:36:17.409Z,943.21
2023-04-03T03:36:48.043Z,943.21
2023-04-03T03:37:20.152Z,943.41
2023-04-03T03:37:49.843Z,943.41
2023-04-03T03:38:21.106Z,943.21
2023-04-03T03:38:52.040Z,943.21
2023-04-03T03:39:22.917Z,943.31
2023-04-03T03:39:53.898Z,943.31
2023-04-03T03:40:24.658Z,943.21
2023-04-03T03:40:56.170Z,943.21
2023-04-03T03:41:27.267Z,943.11
2023-04-03T03:41:57.678Z,943.11
2023-04-03T03:42:29.608Z,943.11
2023-04-03T03:42:59.700Z,943.11
2023-04-03T03:43:30.750Z,943.31
2023-04-03T03:44:02.199Z,943.31
2023-04-03T03:44:32.731Z,943.11
2023-04-03T03:45:06.931Z,943.11
2023-04-03T03:45:35.374Z,943.21
2023-04-03T03:46:07.057Z,943.21
2023-04-03T03:46:37.232Z,943.21
2023-04-03T03:47:07.868Z,943.21
2023-04-03T03:47:40.160Z,943.11
2023-04-03T03:48:10.927Z,943.31
2023-04-03T03:48:40.600Z,943.31
2023-04-03T03:49:11.888Z,943.31
2023-04-03T03:49:43.092Z,943.31
2023-04-03T03:50:13.676Z,943.21
2023-04-03T03:50:44.826Z,943.21
2023-04-03T03:51:15.968Z,943.21
2023-04-03T03:51:46.915Z,943.21
2023-04-03T03:52:18.015Z,943.21
2023-04-03T03:52:50.262Z,943.21
2023-04-03T03:53:19.773Z,943.21
2023-04-03T03:53:51.083Z,943.21
2023-04-03T03:54:22.030Z,943.21
2023-04-03T03:54:53.037Z,943.21
2023-04-03T03:55:24.123Z,943.41
2023-04-03T03:55:55.015Z,943.41
2023-04-03T03:56:26.059Z,943.31
2023-04-03T03:56:56.544Z,943.31
2023-04-03T03:57:27.884Z,943.21
2023-04-03T03:57:59.766Z,943.21
2023-04-03T03:58:30.014Z,943.31
2023-04-03T03:59:01.101Z,943.31
2023-04-03T03:59:32.074Z,943.21
2023-04-03T04:00:06.717Z,943.21
2023-04-03T04:00:33.701Z,943.21
2023-04-03T04:01:04.850Z,943.21
2023-04-03T04:01:35.933Z,943.21
2023-04-03T04:02:07.157Z,943.21
2023-04-03T04:02:37.983Z,943.31
2023-04-03T04:03:09.800Z,943.31
2023-04-03T04:03:40.425Z,943.31
2023-04-03T04:04:11.164Z,943.41
2023-04-03T04:04:41.867Z,943.41
2023-04-03T04:05:12.859Z,943.41
2023-04-03T04:05:44.387Z,943.41
2023-04-03T04:06:14.928Z,943.31
2023-04-03T04:06:46.198Z,943.31
2023-04-03T04:07:17.107Z,943.21
2023-04-03T04:07:47.772Z,943.21
2023-04-03T04:08:20.320Z,943.31
2023-04-03T04:08:50.206Z,943.31
2023-04-03T04:09:21.098Z,943.21
2023-04-03T04:09:52.184Z,943.21
2023-04-03T04:10:23.166Z,943.11
2023-04-03T04:10:54.133Z,943.11
2023-04-03T04:11:25.079Z,943.41
2023-04-03T04:11:56.024Z,943.41
2023-04-03T04:12:27.361Z,943.41
2023-04-03T04:12:58.725Z,943.41
2023-04-03T04:13:29.947Z,943.11
2023-04-03T04:14:00.104Z,943.11
2023-04-03T04:14:31.188Z,943.31
2023-04-03T04:15:04.972Z,943.31
2023-04-03T04:15:33.148Z,943.31
2023-04-03T04:16:04.000Z,943.31
2023-04-03T04:16:35.038Z,943.41
2023-04-03T04:17:06.047Z,943.41
2023-04-03T04:17:36.993Z,943.21
2023-04-03T04:18:07.968Z,943.21
2023-04-03T04:18:40.072Z,943.21
2023-04-03T04:19:10.718Z,943.21
2023-04-03T04:19:41.018Z,943.21
2023-04-03T04:20:11.740Z,943.21
2023-04-03T04:20:43.010Z,943.21
2023-04-03T04:21:14.590Z,943.31
2023-04-03T04:21:45.207Z,943.31
2023-04-03T04:22:15.942Z,943.21
2023-04-03T04:22:46.873Z,943.21
2023-04-03T04:23:18.095Z,943.11
2023-04-03T04:23:50.030Z,943.11
2023-04-03T04:24:20.171Z,943.41
2023-04-03T04:24:50.764Z,943.41
2023-04-03T04:25:22.537Z,943.21
2023-04-03T04:27:19.254Z,943.21
2023-04-03T04:27:51.818Z,943.31
2023-04-03T04:28:22.519Z,943.31
2023-04-03T04:28:54.496Z,943.31
2023-04-03T04:29:24.540Z,943.51
2023-04-03T04:29:57.537Z,943.51
2023-04-03T04:30:48.199Z,943.21
2023-04-03T04:31:04.645Z,943.21
2023-04-03T04:31:35.547Z,943.51
2023-04-03T04:32:05.370Z,943.51
2023-04-03T04:32:36.486Z,943.41
2023-04-03T04:33:06.888Z,943.41
2023-04-03T04:33:37.701Z,943.51
2023-04-03T04:34:09.485Z,943.41
2023-04-03T04:34:40.007Z,943.41
2023-04-03T04:35:10.834Z,943.41
2023-04-03T04:35:42.108Z,943.41
2023-04-03T04:36:12.849Z,943.62
2023-04-03T04:36:44.291Z,943.62
2023-04-03T04:37:14.725Z,943.62
2023-04-03T04:37:46.205Z,943.62
2023-04-03T04:38:16.950Z,943.31
2023-04-03T04:38:48.144Z,943.31
2023-04-03T04:39:20.449Z,943.51
2023-04-03T04:39:50.388Z,943.51
2023-04-03T04:40:20.693Z,943.51
2023-04-03T04:40:51.960Z,943.51
2023-04-03T04:41:22.712Z,943.51
2023-04-03T04:41:54.039Z,943.51
2023-04-03T04:42:25.094Z,943.62
2023-04-03T04:42:55.910Z,943.62
2023-04-03T04:43:26.676Z,943.51
2023-04-03T04:43:58.568Z,943.51
2023-04-03T04:44:29.920Z,943.72
2023-04-03T04:45:00.204Z,943.72
2023-04-03T04:45:34.370Z,943.41
2023-04-03T04:46:02.854Z,943.41
2023-04-03T04:46:33.202Z,943.62
2023-04-03T04:47:03.669Z,943.62
2023-04-03T04:47:35.061Z,943.51
2023-04-03T04:48:05.788Z,943.51
2023-04-03T04:48:36.942Z,943.51
2023-04-03T04:49:07.606Z,943.51
2023-04-03T04:49:39.979Z,943.62
2023-04-03T04:50:11.115Z,943.31
2023-04-03T04:50:40.863Z,943.31
2023-04-03T04:51:11.946Z,943.51
2023-04-03T04:51:51.511Z,943.51
2023-04-03T04:52:13.893Z,943.51
2023-04-03T04:52:45.014Z,943.51
2023-04-03T04:53:16.308Z,943.31
2023-04-03T04:53:46.773Z,943.31
2023-04-03T04:54:17.769Z,943.51
2023-04-03T04:54:49.751Z,943.51
2023-04-03T04:55:19.694Z,943.62
2023-04-03T04:55:51.052Z,943.62
2023-04-03T04:56:22.195Z,943.72
2023-04-03T04:56:53.198Z,943.72
2023-04-03T04:57:23.872Z,943.41
2023-04-03T04:57:55.052Z,943.41
2023-04-03T04:58:25.985Z,943.62
2023-04-03T04:58:57.387Z,943.62
2023-04-03T04:59:28.205Z,943.51
2023-04-03T05:00:03.411Z,943.51
2023-04-03T05:00:30.240Z,943.62
2023-04-03T05:01:00.602Z,943.62
2023-04-03T05:01:31.851Z,943.72
2023-04-03T05:02:02.732Z,943.72
2023-04-03T05:02:33.808Z,943.41
2023-04-03T05:03:04.900Z,943.41
2023-04-03T05:03:35.602Z,943.51
2023-04-03T05:04:06.559Z,943.51
2023-04-03T05:04:37.819Z,943.62
2023-04-03T05:05:10.193Z,943.62
2023-04-03T05:05:39.927Z,943.62
2023-04-03T05:06:10.630Z,943.72
2023-04-03T05:06:41.938Z,943.72
2023-04-03T05:07:12.640Z,943.62
2023-04-03T05:07:44.003Z,943.62
2023-04-03T05:08:14.654Z,943.62
2023-04-03T05:08:45.807Z,943.62
2023-04-03T05:09:16.617Z,943.62
2023-04-03T05:09:47.713Z,943.62
2023-04-03T05:10:19.811Z,943.72
2023-04-03T05:10:49.809Z,943.72
2023-04-03T05:11:20.887Z,943.51
2023-04-03T05:11:52.173Z,943.51
2023-04-03T05:12:22.987Z,943.82
2023-04-03T05:12:53.954Z,943.82
2023-04-03T05:13:25.055Z,943.62
2023-04-03T05:13:56.373Z,943.62
2023-04-03T05:14:27.148Z,943.82
2023-04-03T05:14:58.059Z,943.82
2023-04-03T05:15:33.072Z,943.51
2023-04-03T05:16:00.413Z,943.51
2023-04-03T05:16:31.252Z,943.72
2023-04-03T05:17:02.938Z,943.72
2023-04-03T05:17:34.325Z,943.72
2023-04-03T05:18:04.202Z,943.72
2023-04-03T05:18:35.072Z,943.62
2023-04-03T05:19:06.267Z,943.62
2023-04-03T05:19:37.076Z,943.82
2023-04-03T05:20:08.175Z,943.82
2023-04-03T05:20:41.125Z,943.72
2023-04-03T05:21:11.453Z,943.62
2023-04-03T05:21:41.721Z,943.62
2023-04-03T05:22:12.219Z,943.62
2023-04-03T05:22:42.793Z,943.62
2023-04-03T05:23:14.218Z,943.82
2023-04-03T05:23:45.020Z,943.82
2023-04-03T05:24:16.271Z,943.82
2023-04-03T05:24:47.122Z,943.82
2023-04-03T05:25:18.050Z,943.72
2023-04-03T05:25:50.052Z,943.72
2023-04-03T05:26:20.340Z,943.72
2023-04-03T05:26:51.110Z,943.72
2023-04-03T05:27:22.375Z,943.51
2023-04-03T05:27:53.086Z,943.51
2023-04-03T05:28:23.877Z,943.51
2023-04-03T05:28:55.145Z,943.51
2023-04-03T05:29:26.449Z,943.72
2023-04-03T05:29:57.461Z,943.72
2023-04-03T05:30:34.291Z,943.82
2023-04-03T05:30:59.946Z,943.82
2023-04-03T05:31:30.009Z,943.82
2023-04-03T05:32:01.088Z,943.82
2023-04-03T05:32:32.305Z,943.72
2023-04-03T05:33:03.334Z,943.72
2023-04-03T05:33:33.944Z,943.82
2023-04-03T05:34:05.270Z,943.82
2023-04-03T05:34:36.344Z,943.62
2023-04-03T05:35:07.596Z,943.62
2023-04-03T05:35:38.204Z,944.02
2023-04-03T05:36:09.805Z,943.92
2023-04-03T05:36:39.869Z,943.92
2023-04-03T05:37:11.253Z,943.92
2023-04-03T05:37:42.489Z,943.92
2023-04-03T05:38:13.044Z,943.92
2023-04-03T05:38:44.007Z,943.92
2023-04-03T05:39:14.991Z,944.02
2023-04-03T05:39:46.651Z,944.02
2023-04-03T05:40:18.568Z,944.02
2023-04-03T05:40:48.180Z,944.02
2023-04-03T05:41:20.680Z,943.82
2023-04-03T05:41:50.278Z,943.82
2023-04-03T05:42:21.305Z,944.02
2023-04-03T05:42:52.219Z,944.02
2023-04-03T05:43:22.847Z,943.92
2023-04-03T05:43:53.872Z,943.92
2023-04-03T05:44:24.961Z,943.92
2023-04-03T05:44:55.989Z,943.92
2023-04-03T05:45:30.076Z,943.92
2023-04-03T05:45:58.295Z,943.92
2023-04-03T05:46:30.237Z,943.72
2023-04-03T05:46:59.941Z,943.72
2023-04-03T05:47:31.028Z,944.12
2023-04-03T05:48:02.018Z,944.12
2023-04-03T05:48:33.023Z,943.92
2023-04-03T05:49:04.327Z,943.92
2023-04-03T05:49:35.275Z,943.92
2023-04-03T05:50:06.075Z,943.92
2023-04-03T05:50:36.950Z,944.02
2023-04-03T05:51:08.028Z,944.02
2023-04-03T05:51:40.093Z,944.02
2023-04-03T05:52:10.934Z,943.92
2023-04-03T05:52:41.362Z,943.92
2023-04-03T05:53:12.724Z,943.82
2023-04-03T05:53:43.079Z,943.82
2023-04-03T05:54:14.374Z,943.92
2023-04-03T05:54:44.778Z,943.92
2023-04-03T05:55:16.621Z,943.82
2023-04-03T05:55:47.246Z,943.82
2023-04-03T05:56:18.590Z,943.92
2023-04-03T05:56:50.494Z,943.92
2023-04-03T05:57:19.902Z,943.82
2023-04-03T05:57:51.340Z,943.82
2023-04-03T05:58:22.106Z,943.92
2023-04-03T05:58:53.461Z,943.92
2023-04-03T05:59:24.265Z,944.12
2023-04-03T05:59:55.549Z,944.12
2023-04-03T06:00:29.971Z,944.02
2023-04-03T06:00:57.260Z,944.02
2023-04-03T06:01:28.010Z,944.02
2023-04-03T06:02:00.121Z,944.02
2023-04-03T06:02:30.189Z,944.33
2023-04-03T06:03:01.265Z,944.33
2023-04-03T06:03:32.203Z,943.82
2023-04-03T06:04:03.076Z,943.82
2023-04-03T06:04:33.940Z,944.02
2023-04-03T06:05:05.005Z,944.02
2023-04-03T06:05:36.334Z,943.92
2023-04-03T06:06:07.084Z,943.92
2023-04-03T06:06:40.571Z,944.12
2023-04-03T06:07:10.511Z,944.33
2023-04-03T06:07:41.447Z,944.33
2023-04-03T06:08:11.170Z,944.02
2023-04-03T06:08:41.894Z,944.02
2023-04-03T06:09:13.040Z,944.12
2023-04-03T06:09:44.190Z,944.12
2023-04-03T06:10:15.184Z,944.12
2023-04-03T06:10:46.020Z,944.12
2023-04-03T06:11:17.744Z,944.12
2023-04-03T06:11:48.532Z,944.12
2023-04-03T06:12:20.535Z,944.22
2023-04-03T06:12:50.182Z,944.22
2023-04-03T06:13:21.247Z,944.02
2023-04-03T06:13:52.149Z,944.02
2023-04-03T06:14:23.487Z,944.12
2023-04-03T06:14:54.626Z,944.12
2023-04-03T06:15:28.243Z,944.02
2023-04-03T06:15:56.381Z,944.02
2023-04-03T06:16:27.761Z,944.12
2023-04-03T06:16:58.051Z,944.12
2023-04-03T06:17:30.104Z,944.33
2023-04-03T06:17:59.971Z,944.33
2023-04-03T06:18:30.992Z,943.92
2023-04-03T06:19:02.310Z,943.92
2023-04-03T06:19:32.983Z,944.12
2023-04-03T06:20:04.085Z,944.12
2023-04-03T06:20:35.204Z,944.02
2023-04-03T06:21:06.022Z,944.02
2023-04-03T06:21:36.980Z,943.92
2023-04-03T06:22:08.507Z,943.92
2023-04-03T06:22:40.421Z,944.22
2023-04-03T06:23:11.447Z,943.92
2023-04-03T06:23:41.654Z,943.92
2023-04-03T06:24:12.367Z,943.92
2023-04-03T06:24:43.196Z,943.92
2023-04-03T06:25:14.346Z,944.12
2023-04-03T06:25:44.958Z,944.12
2023-04-03T06:26:16.370Z,944.33
2023-04-03T06:26:47.530Z,944.33
2023-04-03T06:27:18.523Z,944.33
2023-04-03T06:27:50.331Z,944.33
2023-04-03T06:28:20.370Z,944.02
2023-04-03T06:28:51.926Z,944.02
2023-04-03T06:29:22.069Z,944.12
2023-04-03T06:29:52.964Z,944.12
2023-04-03T06:30:27.249Z,944.12
2023-04-03T06:30:55.208Z,944.12